Time;durP1;ratioP1;P1;durP2;ratioP2;P2;SDS_P1;SDS_P2;PMS_P1;PMS_P2;Temp;Humidity;BMP_temperature;BMP_pressure;BME280_temperature;BME280_humidity;BME280_pressure;Samples;Min_cycle;Max_cycle;Signal;HPM_P1;HPM_P2
2024/01/24 00:02:00;;;;;;;;;;;12.50;49.90;;;12.63;52.85;100521.59;5038466;28;19929;-37
2024/01/24 00:04:28;;;;;;;;;;;12.50;49.80;;;12.64;52.37;100507.41;5039853;28;19952;-37
2024/01/24 00:06:56;;;;;;;;;;;12.50;49.70;;;12.63;52.82;100516.56;5040802;28;19992;-35
2024/01/24 00:09:24;;;;;;;;;;;12.50;49.80;;;12.64;52.32;100523.38;5042343;28;19984;-36
2024/01/24 00:11:52;;;;;;;;;;;12.50;50.00;;;12.66;52.39;100537.03;5041128;28;19932;-37
2024/01/24 00:14:22;;;;;;;;;;;12.50;50.00;;;12.65;52.90;100510.06;5042152;28;19929;-36
2024/01/24 00:16:49;;;;;;;;;;;12.50;50.00;;;12.59;52.84;100496.78;5041048;28;19953;-36
2024/01/24 00:19:17;;;;;;;;;;;12.50;50.20;;;12.58;51.92;100482.44;5042629;28;20020;-36
2024/01/24 00:21:45;;;;;;;;;;;12.50;50.00;;;12.64;52.84;100505.78;5042320;28;20297;-36
2024/01/24 00:24:13;;;;;;;;;;;12.50;50.00;;;12.66;52.17;100506.84;5037891;28;19925;-36
2024/01/24 00:26:42;;;;;;;;;;;12.50;49.90;;;12.66;52.55;100501.81;5035282;28;19995;-37
2024/01/24 00:29:09;;;;;;;;;;;12.50;50.00;;;12.66;52.80;100486.75;5033939;28;19933;-36
2024/01/24 00:31:39;;;;;;;;;;;12.50;50.00;;;12.65;52.71;100459.81;5029950;28;20381;-37
2024/01/24 00:34:07;;;;;;;;;;;12.50;50.40;;;12.66;52.70;100451.56;5025484;28;20007;-37
2024/01/24 00:36:35;;;;;;;;;;;12.50;50.20;;;12.66;52.66;100459.09;5034065;28;20000;-36
2024/01/24 00:39:03;;;;;;;;;;;12.50;50.10;;;12.67;52.71;100452.44;5033905;28;19925;-37
2024/01/24 00:41:31;;;;;;;;;;;12.50;50.30;;;12.65;53.05;100434.66;5033263;28;19925;-37
2024/01/24 00:43:59;;;;;;;;;;;12.50;50.20;;;12.65;53.31;100433.78;5033818;28;20403;-36
2024/01/24 00:46:27;;;;;;;;;;;12.50;50.60;;;12.64;53.29;100415.31;5033632;28;19937;-37
2024/01/24 00:48:56;;;;;;;;;;;12.50;50.60;;;12.67;52.97;100412.22;5032923;28;20407;-37
2024/01/24 00:51:24;;;;;;;;;;;12.50;50.50;;;12.68;52.35;100407.41;5033199;28;20024;-37
2024/01/24 00:53:52;;;;;;;;;;;12.50;50.30;;;12.67;52.78;100405.59;5032371;28;20391;-36
2024/01/24 00:56:20;;;;;;;;;;;12.50;50.50;;;12.68;53.84;100414.94;5033183;28;19979;-37
2024/01/24 00:58:48;;;;;;;;;;;12.50;50.70;;;12.69;53.15;100420.88;5033667;28;20416;-36
2024/01/24 01:01:16;;;;;;;;;;;12.50;50.70;;;12.69;53.65;100425.88;5033266;28;19931;-36
2024/01/24 01:03:44;;;;;;;;;;;12.50;50.60;;;12.68;53.29;100425.00;5033001;28;19932;-36
2024/01/24 01:06:14;;;;;;;;;;;12.50;50.70;;;12.66;53.57;100421.38;5032907;28;19925;-36
2024/01/24 01:08:42;;;;;;;;;;;12.50;51.00;;;12.67;53.72;100413.13;5037019;28;20270;-36
2024/01/24 01:11:10;;;;;;;;;;;12.50;50.70;;;12.69;53.60;100416.75;5029290;28;20188;-37
2024/01/24 01:13:38;;;;;;;;;;;12.50;51.00;;;12.70;53.90;100408.47;5036859;28;20016;-37
2024/01/24 01:16:06;;;;;;;;;;;12.50;51.00;;;12.70;53.65;100407.59;5037247;28;19925;-37
2024/01/24 01:18:34;;;;;;;;;;;12.50;51.10;;;12.71;53.57;100385.13;5037179;28;19969;-36
2024/01/24 01:21:02;;;;;;;;;;;12.50;50.90;;;12.68;54.30;100379.75;5036553;28;20027;-37
2024/01/24 01:23:31;;;;;;;;;;;12.50;51.00;;;12.71;53.78;100382.59;5036399;28;20041;-37
2024/01/24 01:25:59;;;;;;;;;;;12.50;50.90;;;12.73;52.91;100367.69;5036258;28;19965;-37
2024/01/24 01:28:27;;;;;;;;;;;12.50;50.70;;;12.74;53.58;100377.94;5035719;28;20452;-37
2024/01/24 01:30:55;;;;;;;;;;;12.50;50.60;;;12.74;53.38;100382.97;5031995;28;19926;-37
2024/01/24 01:33:23;;;;;;;;;;;12.50;50.60;;;12.71;53.20;100375.06;5035353;28;19925;-37
2024/01/24 01:35:51;;;;;;;;;;;12.60;50.80;;;12.74;52.95;100375.44;5034740;22;20407;-35
2024/01/24 01:38:27;;;;;;;;;;;12.60;51.00;;;12.75;53.77;100387.28;5016043;28;19983;-37
2024/01/24 01:40:56;;;;;;;;;;;12.60;51.00;;;12.74;53.97;100385.50;5015922;28;19931;-35
2024/01/24 01:43:24;;;;;;;;;;;12.50;51.00;;;12.75;53.81;100387.28;5015586;28;19926;-35
2024/01/24 01:45:53;;;;;;;;;;;12.60;51.00;;;12.77;53.09;100398.41;5015478;28;19932;-36
2024/01/24 01:48:21;;;;;;;;;;;12.60;50.90;;;12.77;53.93;100393.38;5016093;28;19965;-36
2024/01/24 01:50:49;;;;;;;;;;;12.60;51.00;;;12.76;53.74;100374.00;5016601;28;19926;-36
2024/01/24 01:53:19;;;;;;;;;;;12.60;51.10;;;12.77;53.99;100385.81;5021628;28;20385;-36
2024/01/24 01:55:47;;;;;;;;;;;12.60;51.10;;;12.78;53.67;100386.72;5015429;28;20028;-36
2024/01/24 01:58:16;;;;;;;;;;;12.60;51.30;;;12.78;53.88;100364.09;5015778;28;20012;-37
2024/01/24 02:00:45;;;;;;;;;;;12.60;51.30;;;12.78;54.49;100372.53;5015491;28;19925;-36
2024/01/24 02:03:13;;;;;;;;;;;12.60;51.60;;;12.77;54.28;100390.84;5015100;28;19925;-36
2024/01/24 02:05:42;;;;;;;;;;;12.60;51.40;;;12.77;53.44;100370.75;5015138;28;19926;-37
2024/01/24 02:08:10;;;;;;;;;;;12.60;51.60;;;12.75;54.80;100362.16;5015487;28;20296;-37
2024/01/24 02:10:38;;;;;;;;;;;12.60;51.90;;;12.77;54.26;100350.63;5015390;28;19933;-36
2024/01/24 02:13:06;;;;;;;;;;;12.60;51.70;;;12.77;54.42;100365.72;5017204;28;19939;-37
2024/01/24 02:15:35;;;;;;;;;;;12.60;51.60;;;12.78;54.59;100357.47;5020277;28;19948;-36
2024/01/24 02:18:04;;;;;;;;;;;12.60;51.60;;;12.79;53.84;100358.34;5014817;28;19931;-36
2024/01/24 02:20:32;;;;;;;;;;;12.60;51.60;;;12.80;54.57;100340.03;5015061;28;19932;-37
2024/01/24 02:23:00;;;;;;;;;;;12.60;51.80;;;12.80;54.59;100340.03;5014334;28;19972;-37
2024/01/24 02:25:30;;;;;;;;;;;12.60;51.70;;;12.80;54.64;100361.06;5014828;28;20020;-37
2024/01/24 02:27:58;;;;;;;;;;;12.60;51.80;;;12.80;54.11;100325.88;5015020;28;20440;-37
2024/01/24 02:30:26;;;;;;;;;;;12.60;51.80;;;12.79;54.81;100349.22;5023222;28;20297;-34
2024/01/24 02:32:54;;;;;;;;;;;12.60;51.90;;;12.80;54.90;100340.94;5014250;28;19925;-35
2024/01/24 02:35:24;;;;;;;;;;;12.60;52.20;;;12.81;54.31;100346.88;5018384;28;19980;-35
2024/01/24 02:37:52;;;;;;;;;;;12.60;52.00;;;12.82;55.01;100364.66;5015074;28;20023;-35
2024/01/24 02:40:20;;;;;;;;;;;12.60;52.00;;;12.83;54.57;100341.31;5014648;28;20448;-35
2024/01/24 02:42:49;;;;;;;;;;;12.60;51.90;;;12.84;54.92;100365.72;5014427;28;19925;-36
2024/01/24 02:45:17;;;;;;;;;;;12.60;52.10;;;12.84;55.23;100348.13;5014688;28;19948;-36
2024/01/24 02:47:45;;;;;;;;;;;12.60;52.10;;;12.82;55.45;100349.56;5023266;28;20037;-36
2024/01/24 02:50:13;;;;;;;;;;;12.60;52.10;;;12.83;55.22;100331.25;5014366;28;19925;-35
2024/01/24 02:52:42;;;;;;;;;;;12.60;52.10;;;12.84;54.53;100337.16;5013325;28;19930;-35
2024/01/24 02:55:13;;;;;;;;;;;12.60;52.10;;;12.82;55.21;100337.00;5014455;28;19967;-36
2024/01/24 02:57:41;;;;;;;;;;;12.60;52.10;;;12.80;55.35;100338.44;5014978;28;20377;-35
2024/01/24 03:00:13;;;;;;;;;;;12.60;52.10;;;12.77;54.96;100335.53;5016302;28;20403;-35
2024/01/24 03:02:41;;;;;;;;;;;12.60;52.40;;;12.74;55.52;100305.03;5016348;28;20024;-36
2024/01/24 03:05:09;;;;;;;;;;;12.60;52.60;;;12.69;55.25;100301.09;5013620;28;19933;-36
2024/01/24 03:07:37;;;;;;;;;;;12.50;52.50;;;12.66;55.99;100295.72;5014199;28;20019;-35
2024/01/24 03:10:08;;;;;;;;;;;12.50;52.70;;;12.65;55.25;100293.00;5014196;28;19926;-36
2024/01/24 03:12:35;;;;;;;;;;;12.50;52.50;;;12.60;56.24;100305.06;5021633;28;19925;-35
2024/01/24 03:15:05;;;;;;;;;;;12.40;52.60;;;12.58;56.20;100280.47;5013398;28;19926;-35
2024/01/24 03:17:34;;;;;;;;;;;12.40;53.10;;;12.54;55.95;100278.31;5022498;28;19926;-35
2024/01/24 03:20:04;;;;;;;;;;;12.40;53.40;;;12.51;56.27;100283.91;5013330;28;19926;-35
2024/01/24 03:22:31;;;;;;;;;;;12.30;53.30;;;12.48;56.59;100284.44;5012962;28;19979;-34
2024/01/24 03:24:59;;;;;;;;;;;12.30;53.40;;;12.46;56.31;100284.94;5013238;28;19934;-36
2024/01/24 03:27:27;;;;;;;;;;;12.30;53.40;;;12.43;56.98;100292.16;5013491;28;19926;-36
2024/01/24 03:29:55;;;;;;;;;;;12.20;53.60;;;12.41;57.70;100306.13;5012671;28;19968;-36
2024/01/24 03:32:23;;;;;;;;;;;12.20;53.90;;;12.39;56.93;100287.50;5012382;28;19925;-36
2024/01/24 03:34:56;;;;;;;;;;;12.20;53.90;;;12.35;56.92;100275.28;5016942;28;20398;-36
2024/01/24 03:37:24;;;;;;;;;;;12.20;53.60;;;12.34;56.80;100264.34;5013307;28;19925;-36
2024/01/24 03:39:52;;;;;;;;;;;12.20;53.70;;;12.32;57.27;100264.88;5021309;28;19925;-36
2024/01/24 03:42:21;;;;;;;;;;;12.10;54.00;;;12.30;57.72;100266.31;5012615;28;19969;-36
2024/01/24 03:44:49;;;;;;;;;;;12.10;54.10;;;12.27;58.48;100265.94;5012675;28;20316;-36
2024/01/24 03:47:17;;;;;;;;;;;12.10;54.90;;;12.25;58.66;100248.22;5021089;28;20304;-36
2024/01/24 03:49:44;;;;;;;;;;;12.10;54.90;;;12.24;57.47;100260.56;5021404;28;19926;-36
2024/01/24 03:52:14;;;;;;;;;;;12.10;54.80;;;12.24;58.05;100245.50;5012394;28;19929;-36
2024/01/24 03:54:42;;;;;;;;;;;12.00;54.70;;;12.21;57.92;100265.22;5012753;28;19925;-36
2024/01/24 03:57:10;;;;;;;;;;;12.00;54.80;;;12.20;57.11;100278.53;5012634;28;19930;-36
2024/01/24 03:59:38;;;;;;;;;;;12.00;54.00;;;12.18;57.93;100270.81;5013060;28;19929;-36
2024/01/24 04:02:06;;;;;;;;;;;12.00;54.10;;;12.18;57.45;100285.88;5012298;28;19932;-36
2024/01/24 04:04:38;;;;;;;;;;;12.00;54.20;;;12.17;57.79;100278.16;5012806;28;19929;-36
2024/01/24 04:07:06;;;;;;;;;;;12.00;54.50;;;12.16;57.35;100261.28;5013722;28;19926;-36
2024/01/24 04:09:35;;;;;;;;;;;12.00;54.20;;;12.15;57.47;100254.47;5013304;28;19980;-36
2024/01/24 04:12:04;;;;;;;;;;;12.00;54.20;;;12.13;57.03;100260.94;5028584;28;19925;-36
2024/01/24 04:14:32;;;;;;;;;;;11.90;54.10;;;12.12;57.60;100279.22;5013904;28;20047;-36
2024/01/24 04:17:00;;;;;;;;;;;11.90;54.00;;;12.11;57.11;100287.47;5013258;28;20369;-36
2024/01/24 04:19:29;;;;;;;;;;;11.90;54.00;;;12.11;57.44;100297.53;5013196;28;19980;-37
2024/01/24 04:21:57;;;;;;;;;;;11.90;54.20;;;12.09;57.61;100280.66;5011693;28;20411;-36
2024/01/24 04:24:25;;;;;;;;;;;11.90;54.20;;;12.07;57.25;100282.13;5020912;28;19932;-36
2024/01/24 04:26:57;;;;;;;;;;;11.90;54.50;;;12.06;57.93;100275.28;5020959;28;19930;-37
2024/01/24 04:29:25;;;;;;;;;;;11.90;54.90;;;12.06;57.85;100289.47;5012614;28;20036;-36
2024/01/24 04:31:53;;;;;;;;;;;11.90;54.60;;;12.04;58.46;100284.25;5012273;28;19925;-36
2024/01/24 04:34:21;;;;;;;;;;;11.90;54.70;;;12.03;58.31;100305.06;5020647;28;20020;-36
2024/01/24 04:36:49;;;;;;;;;;;11.90;54.70;;;12.04;57.93;100291.78;5016226;28;19972;-36
2024/01/24 04:39:17;;;;;;;;;;;11.80;54.60;;;12.02;58.69;100313.28;5012407;28;19929;-36
2024/01/24 04:41:45;;;;;;;;;;;11.80;55.10;;;12.01;58.32;100296.44;5011953;28;19926;-36
2024/01/24 04:44:14;;;;;;;;;;;11.80;54.90;;;11.98;58.28;100306.13;5012118;28;19960;-36
2024/01/24 04:46:43;;;;;;;;;;;11.80;54.80;;;12.00;58.36;100313.84;5019202;28;20012;-36
2024/01/24 04:49:11;;;;;;;;;;;11.80;55.00;;;11.98;59.93;100307.72;5032565;28;20377;-36
2024/01/24 04:51:59;;;;;;;;;;;11.80;56.20;;;11.97;58.52;100308.44;5031619;28;19926;-36
2024/01/24 04:54:27;;;;;;;;;;;11.80;54.90;;;11.96;58.45;100307.53;5031662;28;20431;-36
2024/01/24 04:56:54;;;;;;;;;;;11.80;55.20;;;11.96;58.73;100312.56;5032552;28;19929;-36
2024/01/24 04:59:24;;;;;;;;;;;11.80;55.10;;;11.96;58.76;100337.66;5039708;28;19932;-34
2024/01/24 05:01:53;;;;;;;;;;;11.80;55.60;;;11.94;60.62;100338.22;5031012;28;19975;-34
2024/01/24 05:04:21;;;;;;;;;;;11.80;56.40;;;11.93;59.71;100362.44;5031814;28;19951;-36
2024/01/24 05:06:49;;;;;;;;;;;11.80;56.10;;;11.92;59.41;100330.50;5032389;28;19925;-36
2024/01/24 05:09:17;;;;;;;;;;;11.70;56.10;;;11.93;59.50;100337.31;5032010;28;19925;-36
2024/01/24 05:11:45;;;;;;;;;;;11.80;56.00;;;11.92;59.78;100330.50;5031371;28;20377;-36
2024/01/24 05:14:13;;;;;;;;;;;11.70;55.80;;;11.91;59.57;100353.81;5031386;28;20004;-37
2024/01/24 05:16:43;;;;;;;;;;;11.70;56.20;;;11.90;60.40;100341.97;5031629;28;19933;-36
2024/01/24 05:19:11;;;;;;;;;;;11.70;56.10;;;11.89;59.93;100355.22;5031906;28;19929;-36
2024/01/24 05:21:42;;;;;;;;;;;11.70;56.10;;;11.89;60.36;100360.25;5031765;28;20026;-36
2024/01/24 05:24:10;;;;;;;;;;;11.70;57.10;;;11.88;61.74;100363.50;5031671;28;19932;-36
2024/01/24 05:26:38;;;;;;;;;;;11.70;57.10;;;11.86;61.88;100354.88;5031947;28;19929;-36
2024/01/24 05:29:07;;;;;;;;;;;11.70;57.70;;;11.86;61.70;100364.00;5031763;28;20027;-36
2024/01/24 05:31:35;;;;;;;;;;;11.70;56.80;;;11.85;61.63;100363.13;5031644;28;20015;-36
2024/01/24 05:34:04;;;;;;;;;;;11.70;57.10;;;11.85;59.92;100369.75;5032385;28;19925;-37
2024/01/24 05:36:32;;;;;;;;;;;11.70;56.70;;;11.84;60.52;100381.41;5032026;28;19925;-36
2024/01/24 05:39:00;;;;;;;;;;;11.70;57.00;;;11.84;61.02;100386.41;5032023;28;20312;-36
2024/01/24 05:41:28;;;;;;;;;;;11.70;56.90;;;11.82;60.44;100377.81;5031366;28;20023;-36
2024/01/24 05:43:56;;;;;;;;;;;11.60;56.90;;;11.81;60.94;100393.59;5030743;28;20388;-36
2024/01/24 05:46:24;;;;;;;;;;;11.60;56.80;;;11.80;60.99;100399.31;5031321;28;20299;-34
2024/01/24 05:48:52;;;;;;;;;;;11.60;57.00;;;11.81;60.16;100420.31;5031530;28;20024;-36
2024/01/24 05:51:21;;;;;;;;;;;11.60;56.50;;;11.80;60.76;100404.34;5031312;28;20343;-37
2024/01/24 05:53:49;;;;;;;;;;;11.60;56.80;;;11.78;60.29;100409.88;5031473;28;19954;-36
2024/01/24 05:56:17;;;;;;;;;;;11.60;56.70;;;11.78;60.07;100420.81;5034715;28;20300;-36
2024/01/24 05:58:45;;;;;;;;;;;11.60;56.70;;;11.79;60.79;100422.63;5035020;28;19925;-34
2024/01/24 06:01:13;;;;;;;;;;;11.60;57.10;;;11.78;59.78;100425.84;5034760;28;19925;-36
2024/01/24 06:03:41;;;;;;;;;;;11.60;56.60;;;11.78;60.47;100404.84;5034121;28;19964;-36
2024/01/24 06:06:10;;;;;;;;;;;11.60;56.90;;;11.78;60.33;100419.91;5034151;28;20017;-36
2024/01/24 06:08:39;;;;;;;;;;;11.60;56.60;;;11.76;59.99;100413.84;5034251;28;19925;-36
2024/01/24 06:11:09;;;;;;;;;;;11.60;57.10;;;11.76;60.04;100428.91;5034690;28;19932;-36
2024/01/24 06:13:37;;;;;;;;;;;11.60;56.90;;;11.75;60.95;100409.53;5034080;28;19932;-36
2024/01/24 06:16:06;;;;;;;;;;;11.60;56.90;;;11.78;59.86;100408.28;5034429;28;19976;-36
2024/01/24 06:18:34;;;;;;;;;;;11.60;56.30;;;11.85;59.88;100418.34;5034539;28;19931;-36
2024/01/24 06:21:02;;;;;;;;;;;11.60;56.50;;;12.01;60.11;100401.03;5034412;28;19929;-36
2024/01/24 06:23:30;;;;;;;;;;;11.80;56.30;;;12.14;59.15;100418.44;5033684;28;19968;-36
2024/01/24 06:25:59;;;;;;;;;;;11.90;55.50;;;12.22;58.70;100413.59;5034464;28;19925;-36
2024/01/24 06:28:27;;;;;;;;;;;12.10;55.20;;;12.28;57.70;100423.47;5026206;28;20393;-36
2024/01/24 06:30:55;;;;;;;;;;;12.10;54.70;;;12.31;57.67;100426.38;5034360;28;19925;-36
2024/01/24 06:33:24;;;;;;;;;;;12.20;54.30;;;12.32;57.89;100411.50;5033476;28;19929;-36
2024/01/24 06:35:52;;;;;;;;;;;12.20;54.10;;;12.35;57.40;100426.91;5033828;28;19936;-37
2024/01/24 06:38:20;;;;;;;;;;;12.20;54.00;;;12.36;57.86;100442.88;5034122;28;19925;-36
2024/01/24 06:40:49;;;;;;;;;;;12.20;54.10;;;12.38;56.65;100433.94;5034483;28;19931;-36
2024/01/24 06:43:18;;;;;;;;;;;12.20;53.90;;;12.37;57.09;100452.22;5035550;28;20024;-36
2024/01/24 06:45:46;;;;;;;;;;;12.20;53.90;;;12.34;57.19;100466.91;5036001;28;20285;-36
2024/01/24 06:48:14;;;;;;;;;;;12.20;54.10;;;12.34;57.50;100499.59;5033854;28;19990;-36
2024/01/24 06:50:42;;;;;;;;;;;12.20;54.00;;;12.32;56.76;100491.00;5035063;28;19935;-36
2024/01/24 06:53:14;;;;;;;;;;;12.20;54.20;;;12.30;57.75;100510.00;5033550;28;19925;-36
2024/01/24 06:55:44;;;;;;;;;;;12.20;54.30;;;12.29;57.82;100520.75;5033898;28;20385;-36
2024/01/24 06:58:11;;;;;;;;;;;12.20;54.40;;;12.28;57.40;100526.47;5034362;28;19925;-36
2024/01/24 07:00:41;;;;;;;;;;;12.10;54.30;;;12.26;58.10;100510.34;5033735;28;19961;-37
2024/01/24 07:03:09;;;;;;;;;;;12.10;54.30;;;12.26;57.35;100536.38;5033169;28;19933;-36
2024/01/24 07:05:37;;;;;;;;;;;12.10;54.30;;;12.25;57.13;100521.09;5033693;28;19940;-36
2024/01/24 07:08:05;;;;;;;;;;;12.10;54.30;;;12.24;57.83;100531.88;5033305;28;19979;-36
2024/01/24 07:10:33;;;;;;;;;;;12.10;54.30;;;12.24;57.68;100529.34;5033487;28;20012;-36
2024/01/24 07:13:01;;;;;;;;;;;12.10;54.10;;;12.22;57.28;100533.28;5032804;28;20454;-36
2024/01/24 07:15:30;;;;;;;;;;;12.10;54.10;;;12.21;57.00;100531.47;5033298;28;19979;-36
2024/01/24 07:18:00;;;;;;;;;;;12.00;54.00;;;12.17;56.99;100544.38;5033516;28;19947;-36
2024/01/24 07:20:29;;;;;;;;;;;12.00;53.90;;;12.18;57.72;100542.06;5025265;28;20020;-37
2024/01/24 07:22:57;;;;;;;;;;;12.00;53.90;;;12.18;57.58;100553.72;5032756;28;19972;-36
2024/01/24 07:25:25;;;;;;;;;;;12.00;54.20;;;12.16;57.90;100572.72;5033428;28;20003;-36
2024/01/24 07:27:53;;;;;;;;;;;12.00;54.30;;;12.14;57.48;100595.13;5032958;28;20012;-36
2024/01/24 07:30:22;;;;;;;;;;;12.00;54.30;;;12.14;57.79;100619.38;5033018;28;19925;-36
2024/01/24 07:32:50;;;;;;;;;;;12.00;54.40;;;12.12;57.21;100605.72;5032643;28;19925;-36
2024/01/24 07:35:19;;;;;;;;;;;12.00;54.10;;;12.09;57.70;100611.25;5033238;28;19971;-36
2024/01/24 07:37:47;;;;;;;;;;;11.90;54.40;;;12.05;57.57;100615.00;5033323;28;19925;-36
2024/01/24 07:40:16;;;;;;;;;;;11.90;54.30;;;12.04;58.00;100612.31;5032984;28;19932;-36
2024/01/24 07:42:44;;;;;;;;;;;11.90;54.50;;;12.03;58.14;100613.00;5032537;28;19929;-36
2024/01/24 07:45:12;;;;;;;;;;;11.90;54.20;;;12.00;58.23;100595.97;5032975;28;19925;-36
2024/01/24 07:47:40;;;;;;;;;;;11.90;54.50;;;12.00;57.61;100606.03;5033040;28;19925;-36
2024/01/24 07:50:11;;;;;;;;;;;11.90;54.50;;;12.00;58.38;100608.53;5032793;28;19925;-34
2024/01/24 07:52:41;;;;;;;;;;;11.80;54.50;;;11.99;58.30;100628.41;5033086;28;19925;-36
2024/01/24 07:55:11;;;;;;;;;;;11.80;54.20;;;11.97;57.77;100624.81;5032455;28;19932;-36
2024/01/24 07:57:40;;;;;;;;;;;11.80;54.60;;;11.95;57.61;100631.28;5033183;28;19931;-36
2024/01/24 08:00:15;;;;;;;;;;;11.80;54.30;;;11.93;58.26;100643.63;5032980;28;19925;-36
2024/01/24 08:02:44;;;;;;;;;;;11.80;54.60;;;11.94;58.64;100632.88;5032528;28;19940;-34
2024/01/24 08:05:14;;;;;;;;;;;11.80;54.70;;;11.93;58.17;100638.63;5032233;28;19932;-34
2024/01/24 08:07:43;;;;;;;;;;;11.80;54.60;;;11.92;57.98;100641.81;5032749;28;19925;-34
2024/01/24 08:10:11;;;;;;;;;;;11.80;54.60;;;11.91;58.49;100635.00;5032562;28;19925;-34
2024/01/24 08:12:40;;;;;;;;;;;11.80;54.80;;;11.89;58.41;100656.50;5031964;28;19925;-34
2024/01/24 08:15:07;;;;;;;;;;;11.80;54.90;;;11.88;58.66;100684.84;5032518;28;20002;-34
2024/01/24 08:17:36;;;;;;;;;;;11.80;55.50;;;11.87;59.21;100678.03;5032093;28;19929;-34
2024/01/24 08:20:08;;;;;;;;;;;11.70;55.20;;;11.87;58.62;100673.00;5032304;28;19933;-34
2024/01/24 08:22:36;;;;;;;;;;;11.70;55.10;;;11.84;58.34;100666.69;5031861;28;19925;-34
2024/01/24 08:25:07;;;;;;;;;;;11.70;54.90;;;11.84;58.20;100694.28;5032236;28;19929;-34
2024/01/24 08:27:36;;;;;;;;;;;11.70;55.00;;;11.84;58.97;100677.63;5025120;28;19972;-35
2024/01/24 08:30:05;;;;;;;;;;;11.70;55.30;;;11.79;59.05;100688.69;5032340;28;19929;-34
2024/01/24 08:32:33;;;;;;;;;;;11.70;55.30;;;11.84;58.66;100707.75;5023825;28;20021;-34
2024/01/24 08:35:01;;;;;;;;;;;11.70;55.40;;;11.84;58.85;100707.75;5032112;28;19931;-34
2024/01/24 08:37:30;;;;;;;;;;;11.70;55.20;;;11.85;58.43;100699.50;5031966;28;20458;-36
2024/01/24 08:39:58;;;;;;;;;;;11.70;54.90;;;11.87;58.09;100703.13;5032296;28;20017;-34
2024/01/24 08:42:27;;;;;;;;;;;11.70;54.60;;;12.06;58.33;100712.25;5031264;28;19925;-34
2024/01/24 08:44:55;;;;;;;;;;;11.80;54.60;;;12.35;57.46;100712.44;5032001;28;19980;-34
2024/01/24 08:47:24;;;;;;;;;;;12.10;53.80;;;12.53;56.08;100754.91;5032284;28;20015;-34
2024/01/24 08:49:53;;;;;;;;;;;12.30;53.30;;;12.68;55.49;100726.66;5031983;28;19925;-34
2024/01/24 08:52:22;;;;;;;;;;;12.50;52.70;;;12.77;55.20;100740.31;5031236;28;19925;-34
2024/01/24 08:54:50;;;;;;;;;;;12.60;52.40;;;12.85;54.98;100732.13;5040418;28;19940;-34
2024/01/24 08:57:18;;;;;;;;;;;12.60;52.00;;;12.97;54.16;100741.84;5031604;28;19935;-34
2024/01/24 08:59:48;;;;;;;;;;;12.80;51.80;;;13.06;54.14;100722.88;5032142;28;19925;-34
2024/01/24 09:02:17;;;;;;;;;;;12.90;51.50;;;13.13;53.81;100746.47;5031462;28;19934;-35
2024/01/24 09:04:46;;;;;;;;;;;13.00;51.30;;;13.19;53.48;100741.28;5031905;28;20024;-35
2024/01/24 09:07:14;;;;;;;;;;;13.00;51.00;;;13.28;53.58;100749.91;5031911;28;20043;-35
2024/01/24 09:09:42;;;;;;;;;;;13.10;50.90;;;13.38;52.49;100745.31;5031799;28;19925;-35
2024/01/24 09:12:10;;;;;;;;;;;13.20;50.60;;;13.44;52.24;100750.16;5030972;28;19932;-35
2024/01/24 09:14:38;;;;;;;;;;;13.20;50.50;;;13.52;52.57;100757.94;5031688;28;20145;-35
2024/01/24 09:17:08;;;;;;;;;;;13.30;50.20;;;13.60;52.49;100764.75;5031784;28;19936;-35
2024/01/24 09:19:40;;;;;;;;;;;13.40;49.90;;;13.64;52.43;100766.94;5032036;28;20381;-35
2024/01/24 09:22:09;;;;;;;;;;;13.40;49.90;;;13.65;52.20;100763.72;5031807;28;20434;-35
2024/01/24 09:24:37;;;;;;;;;;;13.50;49.90;;;13.79;51.88;100771.97;5031528;28;19925;-35
2024/01/24 09:27:05;;;;;;;;;;;13.50;49.60;;;13.89;51.64;100767.34;5031980;28;19929;-35
2024/01/24 09:29:33;;;;;;;;;;;13.70;49.50;;;13.91;51.40;100779.38;5033656;28;19933;-35
2024/01/24 09:32:01;;;;;;;;;;;13.70;49.30;;;13.90;51.50;100779.22;5035134;28;19926;-35
2024/01/24 09:34:30;;;;;;;;;;;13.70;49.30;;;13.85;51.35;100777.75;5034928;28;19960;-35
2024/01/24 09:36:59;;;;;;;;;;;13.60;49.20;;;13.80;51.30;100781.34;5035293;28;19925;-35
2024/01/24 09:39:27;;;;;;;;;;;13.60;49.30;;;13.74;51.26;100778.09;5035371;28;19932;-35
2024/01/24 09:41:55;;;;;;;;;;;13.50;49.30;;;13.67;51.91;100779.88;5034681;28;19976;-35
2024/01/24 09:44:24;;;;;;;;;;;13.40;49.30;;;13.60;51.74;100789.94;5034880;28;19936;-35
2024/01/24 09:46:53;;;;;;;;;;;13.40;50.00;;;13.54;52.02;100819.41;5035392;28;19931;-35
2024/01/24 09:49:21;;;;;;;;;;;13.40;49.60;;;13.47;51.58;100826.94;5034919;28;19933;-35
2024/01/24 09:51:51;;;;;;;;;;;13.30;49.70;;;13.39;51.83;100816.69;5034776;28;19931;-35
2024/01/24 09:54:19;;;;;;;;;;;13.20;49.80;;;13.34;51.75;100838.75;5035518;28;20460;-35
2024/01/24 09:56:48;;;;;;;;;;;13.10;49.80;;;13.29;53.02;100834.78;5035378;28;20008;-35
2024/01/24 09:59:17;;;;;;;;;;;13.10;50.00;;;13.25;53.17;100827.56;5035288;28;19933;-35
2024/01/24 10:01:45;;;;;;;;;;;13.00;50.10;;;13.20;52.79;100848.75;5034583;28;20020;-35
2024/01/24 10:04:13;;;;;;;;;;;13.00;50.20;;;13.15;52.34;100849.81;5034846;28;19925;-35
2024/01/24 10:06:41;;;;;;;;;;;12.90;50.30;;;13.11;53.14;100862.69;5035259;28;19957;-35
2024/01/24 10:09:11;;;;;;;;;;;12.90;50.40;;;13.06;52.82;100848.66;5035228;28;19925;-35
2024/01/24 10:11:39;;;;;;;;;;;12.80;50.40;;;13.03;52.59;100868.38;5034627;28;19988;-35
2024/01/24 10:14:07;;;;;;;;;;;12.80;50.50;;;13.00;53.76;100878.06;5035185;28;20359;-35
2024/01/24 10:16:35;;;;;;;;;;;12.80;50.70;;;12.95;52.87;100876.59;5035554;28;20324;-35
2024/01/24 10:19:03;;;;;;;;;;;12.80;50.70;;;12.93;53.08;100865.44;5035556;28;19952;-35
2024/01/24 10:21:31;;;;;;;;;;;12.70;50.70;;;12.90;54.07;100866.84;5035717;28;19925;-35
2024/01/24 10:23:59;;;;;;;;;;;12.70;50.70;;;12.88;53.63;100872.44;5036181;28;19929;-35
2024/01/24 10:26:30;;;;;;;;;;;12.70;51.40;;;12.85;53.62;100884.59;5035565;28;19926;-35
2024/01/24 10:28:58;;;;;;;;;;;12.70;50.80;;;12.84;53.81;100891.25;5034636;28;20397;-35
2024/01/24 10:31:26;;;;;;;;;;;12.60;50.80;;;12.83;53.64;100889.47;5035060;28;20464;-35
2024/01/24 10:33:55;;;;;;;;;;;12.60;50.80;;;12.83;53.87;100889.47;5034324;28;19932;-35
2024/01/24 10:36:23;;;;;;;;;;;12.60;50.80;;;12.84;53.88;100878.66;5034305;28;19925;-36
2024/01/24 10:39:00;;;;;;;;;;;12.60;50.80;;;12.85;53.46;100893.06;5035336;28;19929;-35
2024/01/24 10:41:31;;;;;;;;;;;12.60;50.70;;;12.87;52.88;100895.78;5035638;28;20424;-35
2024/01/24 10:44:03;;;;;;;;;;;12.70;50.80;;;12.91;53.45;100900.47;5036466;28;20396;-34
2024/01/24 10:46:33;;;;;;;;;;;12.70;50.80;;;12.94;52.52;100892.41;5034966;28;20016;-35
2024/01/24 10:49:01;;;;;;;;;;;12.70;50.70;;;12.97;53.19;100892.75;5034465;28;19948;-35
2024/01/24 10:51:29;;;;;;;;;;;12.70;50.60;;;13.00;53.28;100875.56;5034518;28;20333;-35
2024/01/24 10:53:58;;;;;;;;;;;12.80;50.50;;;13.02;52.26;100877.56;5034524;28;19935;-37
2024/01/24 10:56:27;;;;;;;;;;;12.80;50.40;;;13.05;52.65;100882.06;5035349;28;19975;-34
2024/01/24 10:58:57;;;;;;;;;;;12.80;50.40;;;13.08;53.04;100869.88;5035147;28;20377;-35
2024/01/24 11:01:25;;;;;;;;;;;12.80;50.30;;;13.11;52.87;100882.81;5035241;28;19925;-35
2024/01/24 11:03:54;;;;;;;;;;;12.90;50.20;;;13.14;52.77;100890.78;5034350;28;20471;-35
2024/01/24 11:06:22;;;;;;;;;;;12.90;50.70;;;13.19;52.72;100900.69;5033640;28;20300;-34
2024/01/24 11:08:55;;;;;;;;;;;13.00;50.10;;;13.21;52.75;100890.84;5033973;28;19929;-35
2024/01/24 11:11:23;;;;;;;;;;;13.00;50.00;;;13.24;52.00;100886.16;5033730;28;20359;-35
2024/01/24 11:13:51;;;;;;;;;;;13.00;49.90;;;13.28;52.21;100903.41;5033196;28;20381;-35
2024/01/24 11:16:30;;;;;;;;;;;13.10;49.90;;;13.33;52.12;100876.34;5034148;28;19929;-35